sensor_id;sensor_type;location;lat;lon;timestamp;temperature;humidity
67165;SHT31;54093;50.014;19.984;2023-01-24T00:03:19;1.93;90.96
67165;SHT31;54093;50.014;19.984;2023-01-24T00:12:40;1.89;90.89
67165;SHT31;54093;50.014;19.984;2023-01-24T00:22:05;1.91;90.96
67165;SHT31;54093;50.014;19.984;2023-01-24T00:31:27;1.93;90.94
67165;SHT31;54093;50.014;19.984;2023-01-24T00:40:48;1.94;90.93
67165;SHT31;54093;50.014;19.984;2023-01-24T00:50:09;1.94;90.96
67165;SHT31;54093;50.014;19.984;2023-01-24T00:59:30;1.97;90.94
67165;SHT31;54093;50.014;19.984;2023-01-24T01:08:52;1.98;90.93
67165;SHT31;54093;50.014;19.984;2023-01-24T01:18:13;1.98;90.93
67165;SHT31;54093;50.014;19.984;2023-01-24T01:27:34;1.98;90.85
67165;SHT31;54093;50.014;19.984;2023-01-24T01:36:55;1.94;90.90
67165;SHT31;54093;50.014;19.984;2023-01-24T01:46:21;1.93;90.95
67165;SHT31;54093;50.014;19.984;2023-01-24T01:55:45;1.97;90.95
67165;SHT31;54093;50.014;19.984;2023-01-24T02:05:11;1.95;90.90
67165;SHT31;54093;50.014;19.984;2023-01-24T02:14:34;1.97;90.83
67165;SHT31;54093;50.014;19.984;2023-01-24T02:24:27;1.94;90.85
67165;SHT31;54093;50.014;19.984;2023-01-24T02:33:50;1.94;90.89
67165;SHT31;54093;50.014;19.984;2023-01-24T02:43:12;1.93;90.77
67165;SHT31;54093;50.014;19.984;2023-01-24T02:52:35;1.89;90.71
67165;SHT31;54093;50.014;19.984;2023-01-24T03:02:14;1.89;90.74
67165;SHT31;54093;50.014;19.984;2023-01-24T03:11:35;1.89;90.79
67165;SHT31;54093;50.014;19.984;2023-01-24T03:20:56;1.94;90.74
67165;SHT31;54093;50.014;19.984;2023-01-24T03:30:36;1.93;90.81
67165;SHT31;54093;50.014;19.984;2023-01-24T03:40:16;1.94;90.77
67165;SHT31;54093;50.014;19.984;2023-01-24T03:49:37;1.95;90.89
67165;SHT31;54093;50.014;19.984;2023-01-24T03:59:17;1.95;90.91
67165;SHT31;54093;50.014;19.984;2023-01-24T04:08:37;1.94;90.96
67165;SHT31;54093;50.014;19.984;2023-01-24T04:18:01;1.93;90.98
67165;SHT31;54093;50.014;19.984;2023-01-24T04:27:22;1.94;90.94
67165;SHT31;54093;50.014;19.984;2023-01-24T04:36:43;1.94;90.91
67165;SHT31;54093;50.014;19.984;2023-01-24T04:46:04;1.93;90.90
67165;SHT31;54093;50.014;19.984;2023-01-24T04:55:25;1.91;90.87
67165;SHT31;54093;50.014;19.984;2023-01-24T05:04:46;1.91;90.91
67165;SHT31;54093;50.014;19.984;2023-01-24T05:14:10;1.89;90.75
67165;SHT31;54093;50.014;19.984;2023-01-24T05:23:31;1.91;90.74
67165;SHT31;54093;50.014;19.984;2023-01-24T05:32:56;1.94;90.70
67165;SHT31;54093;50.014;19.984;2023-01-24T05:42:17;1.91;90.58
67165;SHT31;54093;50.014;19.984;2023-01-24T05:51:38;1.94;90.41
67165;SHT31;54093;50.014;19.984;2023-01-24T06:00:59;1.91;90.36
67165;SHT31;54093;50.014;19.984;2023-01-24T06:10:20;1.91;90.26
67165;SHT31;54093;50.014;19.984;2023-01-24T06:19:41;1.94;90.29
67165;SHT31;54093;50.014;19.984;2023-01-24T06:29:03;1.91;90.22
67165;SHT31;54093;50.014;19.984;2023-01-24T06:38:24;1.93;90.21
67165;SHT31;54093;50.014;19.984;2023-01-24T06:47:46;1.89;90.24
67165;SHT31;54093;50.014;19.984;2023-01-24T06:57:07;1.93;90.31
67165;SHT31;54093;50.014;19.984;2023-01-24T07:06:28;1.93;90.33
67165;SHT31;54093;50.014;19.984;2023-01-24T07:15:49;1.95;90.42
67165;SHT31;54093;50.014;19.984;2023-01-24T07:25:14;1.93;90.55
67165;SHT31;54093;50.014;19.984;2023-01-24T07:34:37;1.97;90.57
67165;SHT31;54093;50.014;19.984;2023-01-24T07:43:58;1.99;90.53
67165;SHT31;54093;50.014;19.984;2023-01-24T07:53:19;1.95;90.58
67165;SHT31;54093;50.014;19.984;2023-01-24T08:02:41;2.02;90.56
67165;SHT31;54093;50.014;19.984;2023-01-24T08:12:03;2.04;90.52
67165;SHT31;54093;50.014;19.984;2023-01-24T08:21:24;2.02;90.55
67165;SHT31;54093;50.014;19.984;2023-01-24T08:30:45;2.05;90.60
67165;SHT31;54093;50.014;19.984;2023-01-24T08:40:06;2.08;90.67
67165;SHT31;54093;50.014;19.984;2023-01-24T08:49:31;2.06;90.69
67165;SHT31;54093;50.014;19.984;2023-01-24T08:58:52;2.04;90.83
67165;SHT31;54093;50.014;19.984;2023-01-24T09:08:13;2.06;90.84
67165;SHT31;54093;50.014;19.984;2023-01-24T09:17:34;2.06;90.91
67165;SHT31;54093;50.014;19.984;2023-01-24T09:26:55;2.09;90.93
67165;SHT31;54093;50.014;19.984;2023-01-24T09:36:16;2.12;90.96
67165;SHT31;54093;50.014;19.984;2023-01-24T09:45:43;2.11;91.02
67165;SHT31;54093;50.014;19.984;2023-01-24T09:55:19;2.14;91.12
67165;SHT31;54093;50.014;19.984;2023-01-24T10:04:45;2.16;91.11
67165;SHT31;54093;50.014;19.984;2023-01-24T10:14:30;2.21;91.07
67165;SHT31;54093;50.014;19.984;2023-01-24T10:24:09;2.21;91.05
67165;SHT31;54093;50.014;19.984;2023-01-24T10:34:07;2.21;91.07
67165;SHT31;54093;50.014;19.984;2023-01-24T10:43:31;2.22;91.00
67165;SHT31;54093;50.014;19.984;2023-01-24T10:52:53;2.28;91.09
67165;SHT31;54093;50.014;19.984;2023-01-24T11:02:31;2.23;91.08
67165;SHT31;54093;50.014;19.984;2023-01-24T11:11:57;2.32;91.10
67165;SHT31;54093;50.014;19.984;2023-01-24T11:21:19;2.29;91.02
67165;SHT31;54093;50.014;19.984;2023-01-24T11:30:40;2.32;91.04
67165;SHT31;54093;50.014;19.984;2023-01-24T12:38:18;2.18;90.82
67165;SHT31;54093;50.014;19.984;2023-01-24T12:47:51;2.14;90.87
67165;SHT31;54093;50.014;19.984;2023-01-24T12:57:44;2.12;90.73
67165;SHT31;54093;50.014;19.984;2023-01-24T13:07:16;2.06;90.68
67165;SHT31;54093;50.014;19.984;2023-01-24T13:26:55;2.09;90.46
67165;SHT31;54093;50.014;19.984;2023-01-24T13:36:23;2.01;90.35
67165;SHT31;54093;50.014;19.984;2023-01-24T13:45:46;2.04;90.45
67165;SHT31;54093;50.014;19.984;2023-01-24T14:04:44;2.01;89.94
67165;SHT31;54093;50.014;19.984;2023-01-24T14:14:30;1.91;89.91
67165;SHT31;54093;50.014;19.984;2023-01-24T14:23:56;1.85;90.01
67165;SHT31;54093;50.014;19.984;2023-01-24T14:33:23;1.82;90.13
67165;SHT31;54093;50.014;19.984;2023-01-24T14:42:48;1.82;89.98
67165;SHT31;54093;50.014;19.984;2023-01-24T14:52:25;1.82;90.09
67165;SHT31;54093;50.014;19.984;2023-01-24T15:01:50;1.75;89.88
67165;SHT31;54093;50.014;19.984;2023-01-24T15:11:35;1.74;89.92
67165;SHT31;54093;50.014;19.984;2023-01-24T15:20:56;1.71;89.84
67165;SHT31;54093;50.014;19.984;2023-01-24T15:30:25;1.68;89.79
67165;SHT31;54093;50.014;19.984;2023-01-24T15:39:47;1.67;89.99
67165;SHT31;54093;50.014;19.984;2023-01-24T15:58:38;1.61;90.00
67165;SHT31;54093;50.014;19.984;2023-01-24T16:07:59;1.60;89.96
67165;SHT31;54093;50.014;19.984;2023-01-24T16:17:22;1.63;89.87
67165;SHT31;54093;50.014;19.984;2023-01-24T16:26:52;1.61;89.74
67165;SHT31;54093;50.014;19.984;2023-01-24T16:36:14;1.61;89.76
67165;SHT31;54093;50.014;19.984;2023-01-24T16:45:35;1.60;89.68
67165;SHT31;54093;50.014;19.984;2023-01-24T16:54:56;1.60;89.78
67165;SHT31;54093;50.014;19.984;2023-01-24T17:04:18;1.58;89.67
67165;SHT31;54093;50.014;19.984;2023-01-24T17:13:39;1.48;89.63
67165;SHT31;54093;50.014;19.984;2023-01-24T17:23:00;1.50;89.68
67165;SHT31;54093;50.014;19.984;2023-01-24T17:32:21;1.56;89.72
67165;SHT31;54093;50.014;19.984;2023-01-24T17:41:42;1.57;89.69
67165;SHT31;54093;50.014;19.984;2023-01-24T17:51:09;1.57;89.58
67165;SHT31;54093;50.014;19.984;2023-01-24T18:00:30;1.53;89.43
67165;SHT31;54093;50.014;19.984;2023-01-24T18:09:55;1.53;89.48
67165;SHT31;54093;50.014;19.984;2023-01-24T18:19:16;1.53;89.57
67165;SHT31;54093;50.014;19.984;2023-01-24T18:28:37;1.53;89.53
67165;SHT31;54093;50.014;19.984;2023-01-24T18:37:58;1.51;89.39
67165;SHT31;54093;50.014;19.984;2023-01-24T18:47:20;1.48;89.30
67165;SHT31;54093;50.014;19.984;2023-01-24T18:56:41;1.44;89.23
67165;SHT31;54093;50.014;19.984;2023-01-24T19:06:02;1.48;89.25
67165;SHT31;54093;50.014;19.984;2023-01-24T19:15:23;1.54;89.32
67165;SHT31;54093;50.014;19.984;2023-01-24T19:24:44;1.54;89.24
67165;SHT31;54093;50.014;19.984;2023-01-24T19:34:05;1.57;89.32
67165;SHT31;54093;50.014;19.984;2023-01-24T19:43:26;1.57;89.29
67165;SHT31;54093;50.014;19.984;2023-01-24T19:52:47;1.57;89.32
67165;SHT31;54093;50.014;19.984;2023-01-24T20:02:09;1.56;89.34
67165;SHT31;54093;50.014;19.984;2023-01-24T20:11:31;1.51;89.43
67165;SHT31;54093;50.014;19.984;2023-01-24T20:20:52;1.54;89.57
67165;SHT31;54093;50.014;19.984;2023-01-24T20:30:13;1.56;89.46
67165;SHT31;54093;50.014;19.984;2023-01-24T20:39:36;1.48;89.41
67165;SHT31;54093;50.014;19.984;2023-01-24T20:48:58;1.50;89.50
67165;SHT31;54093;50.014;19.984;2023-01-24T20:58:21;1.47;89.30
67165;SHT31;54093;50.014;19.984;2023-01-24T21:07:42;1.46;89.27
67165;SHT31;54093;50.014;19.984;2023-01-24T21:17:03;1.42;89.16
67165;SHT31;54093;50.014;19.984;2023-01-24T21:26:24;1.39;89.15
67165;SHT31;54093;50.014;19.984;2023-01-24T21:35:45;1.36;89.00
67165;SHT31;54093;50.014;19.984;2023-01-24T21:45:06;1.32;88.98
67165;SHT31;54093;50.014;19.984;2023-01-24T21:54:32;1.37;89.05
67165;SHT31;54093;50.014;19.984;2023-01-24T22:03:54;1.37;89.00
67165;SHT31;54093;50.014;19.984;2023-01-24T22:13:15;1.36;88.70
67165;SHT31;54093;50.014;19.984;2023-01-24T22:32:20;1.27;88.80
67165;SHT31;54093;50.014;19.984;2023-01-24T22:41:41;1.32;88.98
67165;SHT31;54093;50.014;19.984;2023-01-24T22:51:02;1.32;88.98
67165;SHT31;54093;50.014;19.984;2023-01-24T23:00:23;1.30;88.96
67165;SHT31;54093;50.014;19.984;2023-01-24T23:09:44;1.32;89.13
67165;SHT31;54093;50.014;19.984;2023-01-24T23:38:31;1.29;88.93
67165;SHT31;54093;50.014;19.984;2023-01-24T23:47:52;1.22;88.94
67165;SHT31;54093;50.014;19.984;2023-01-24T23:57:13;1.12;88.52
